createdAt,value
2018-12-24T00:00:31.678Z,5.90
2018-12-24T00:01:47.823Z,5.80
2018-12-24T00:03:04.476Z,5.70
2018-12-24T00:04:21.055Z,5.60
2018-12-24T00:05:39.507Z,5.60
2018-12-24T00:06:55.327Z,5.50
2018-12-24T00:08:11.791Z,5.40
2018-12-24T00:09:28.402Z,5.40
2018-12-24T00:10:42.994Z,5.40
2018-12-24T00:12:07.260Z,5.40
2018-12-24T00:13:31.729Z,5.30
2018-12-24T00:14:55.496Z,5.30
2018-12-24T00:16:19.007Z,5.20
2018-12-24T00:17:42.515Z,5.20
2018-12-24T00:19:06.018Z,5.10
2018-12-24T00:20:29.534Z,5.10
2018-12-24T00:21:53.045Z,5.10
2018-12-24T00:23:16.544Z,5.00
2018-12-24T00:24:40.042Z,5.00
2018-12-24T00:26:03.549Z,5.00
2018-12-24T00:27:27.062Z,5.00
2018-12-24T00:28:50.570Z,5.00
2018-12-24T00:30:14.075Z,5.10
2018-12-24T00:31:37.606Z,5.00
2018-12-24T00:33:01.105Z,5.10
2018-12-24T00:34:24.603Z,5.20
2018-12-24T00:35:48.111Z,5.20
2018-12-24T00:37:11.622Z,5.20
2018-12-24T00:38:35.136Z,5.20
2018-12-24T00:39:58.642Z,5.20
2018-12-24T00:41:22.145Z,5.20
2018-12-24T00:42:45.658Z,5.20
2018-12-24T00:44:09.166Z,5.20
2018-12-24T00:46:56.978Z,5.20
2018-12-24T00:48:20.470Z,5.10
2018-12-24T00:49:36.695Z,5.20
2018-12-24T00:50:53.268Z,5.10
2018-12-24T00:52:09.978Z,5.10
2018-12-24T00:53:24.486Z,5.10
2018-12-24T00:54:47.998Z,5.00
2018-12-24T00:56:11.498Z,5.00
2018-12-24T00:57:35.003Z,5.00
2018-12-24T00:58:58.514Z,4.90
2018-12-24T01:00:22.036Z,4.90
2018-12-24T01:01:45.534Z,4.80
2018-12-24T01:03:09.054Z,4.70
2018-12-24T01:04:32.563Z,4.70
2018-12-24T01:05:56.070Z,4.70
2018-12-24T01:07:19.586Z,4.70
2018-12-24T01:08:43.091Z,4.70
2018-12-24T01:10:06.674Z,4.70
2018-12-24T01:11:30.177Z,4.70
2018-12-24T01:12:53.701Z,4.70
2018-12-24T01:14:17.206Z,4.70
2018-12-24T01:15:40.715Z,4.70
2018-12-24T01:17:04.215Z,4.70
2018-12-24T01:18:27.725Z,4.70
2018-12-24T01:19:51.507Z,4.70
2018-12-24T01:21:15.020Z,4.80
2018-12-24T01:22:38.566Z,4.80
2018-12-24T01:24:02.069Z,4.80
2018-12-24T01:25:25.576Z,4.80
2018-12-24T01:26:49.103Z,4.90
2018-12-24T01:28:12.625Z,4.90
2018-12-24T01:29:36.134Z,4.80
2018-12-24T01:30:59.629Z,4.80
2018-12-24T01:32:23.142Z,4.90
2018-12-24T01:33:46.655Z,4.90
2018-12-24T01:35:10.166Z,4.90
2018-12-24T01:36:33.691Z,4.90
2018-12-24T01:37:57.220Z,5.00
2018-12-24T01:39:20.910Z,5.00
2018-12-24T01:40:44.414Z,5.10
2018-12-24T01:42:07.931Z,5.10
2018-12-24T01:43:31.442Z,5.00
2018-12-24T01:44:54.946Z,5.00
2018-12-24T01:46:18.456Z,5.00
2018-12-24T01:47:41.961Z,4.90
2018-12-24T01:49:05.475Z,4.90
2018-12-24T01:50:21.465Z,4.90
2018-12-24T01:51:37.371Z,4.80
2018-12-24T01:52:53.857Z,4.80
2018-12-24T01:54:10.146Z,4.80
2018-12-24T01:55:26.054Z,4.80
2018-12-24T01:56:42.327Z,4.70
2018-12-24T01:57:58.986Z,4.70
2018-12-24T01:59:16.881Z,4.70
2018-12-24T02:00:33.066Z,4.60
2018-12-24T02:01:49.086Z,4.70
2018-12-24T02:03:05.615Z,4.70
2018-12-24T02:04:21.699Z,4.60
2018-12-24T02:05:37.650Z,4.60
2018-12-24T02:06:54.326Z,4.60
2018-12-24T02:08:10.824Z,4.60
2018-12-24T02:09:27.316Z,4.60
2018-12-24T02:10:41.950Z,4.60
2018-12-24T02:12:05.458Z,4.60
2018-12-24T02:13:28.971Z,4.60
2018-12-24T02:14:52.487Z,4.60
2018-12-24T02:16:15.994Z,4.60
2018-12-24T02:17:39.486Z,4.60
2018-12-24T02:19:03.002Z,4.60
2018-12-24T02:20:26.519Z,4.50
2018-12-24T02:21:50.026Z,4.50
2018-12-24T02:23:13.530Z,4.40
2018-12-24T02:24:37.042Z,4.40
2018-12-24T02:26:00.546Z,4.40
2018-12-24T02:27:24.058Z,4.30
2018-12-24T02:28:47.562Z,4.30
2018-12-24T02:30:11.337Z,4.30
2018-12-24T02:31:34.840Z,4.30
2018-12-24T02:34:22.656Z,4.30
2018-12-24T02:35:46.138Z,4.30
2018-12-24T02:37:09.641Z,4.40
2018-12-24T02:38:33.138Z,4.30
2018-12-24T02:39:56.820Z,4.20
2018-12-24T02:41:21.843Z,4.10
2018-12-24T02:42:52.291Z,4.10
2018-12-24T02:44:10.583Z,4.00
2018-12-24T02:45:34.145Z,4.00
2018-12-24T02:46:57.650Z,4.10
2018-12-24T02:48:21.137Z,4.10
2018-12-24T02:49:44.702Z,4.10
2018-12-24T02:51:08.219Z,4.10
2018-12-24T02:52:31.733Z,4.10
2018-12-24T02:53:55.232Z,4.10
2018-12-24T02:55:18.752Z,4.10
2018-12-24T02:56:42.242Z,4.10
2018-12-24T02:58:05.760Z,4.20
2018-12-24T02:59:29.286Z,4.20
2018-12-24T03:00:52.775Z,4.10
2018-12-24T03:02:16.280Z,4.10
2018-12-24T03:03:39.778Z,4.10
2018-12-24T03:05:03.286Z,4.10
2018-12-24T03:06:26.782Z,4.10
2018-12-24T03:07:50.282Z,4.10
2018-12-24T03:09:13.775Z,4.00
2018-12-24T03:10:37.287Z,4.00
2018-12-24T03:12:00.779Z,4.00
2018-12-24T03:13:24.278Z,4.00
2018-12-24T03:14:47.801Z,4.00
2018-12-24T03:16:11.311Z,4.00
2018-12-24T03:17:34.865Z,4.00
2018-12-24T03:18:58.533Z,4.00
2018-12-24T03:20:22.045Z,4.00
2018-12-24T03:21:45.534Z,4.00
2018-12-24T03:23:09.031Z,4.00
2018-12-24T03:24:32.524Z,4.00
2018-12-24T03:25:56.027Z,3.90
2018-12-24T03:27:19.532Z,3.90
2018-12-24T03:28:43.038Z,3.90
2018-12-24T03:30:06.646Z,3.80
2018-12-24T03:31:30.151Z,3.80
2018-12-24T03:32:53.652Z,3.80
2018-12-24T03:34:17.259Z,3.80
2018-12-24T03:35:42.354Z,3.80
2018-12-24T03:37:05.862Z,3.70
2018-12-24T03:38:31.142Z,3.80
2018-12-24T03:39:54.647Z,3.70
2018-12-24T03:41:18.166Z,3.80
2018-12-24T03:42:41.681Z,3.70
2018-12-24T03:44:05.187Z,3.80
2018-12-24T03:45:28.723Z,3.80
2018-12-24T03:46:52.218Z,3.70
2018-12-24T03:48:15.709Z,3.70
2018-12-24T03:49:39.214Z,3.70
2018-12-24T03:50:55.121Z,3.70
2018-12-24T03:52:11.182Z,3.70
2018-12-24T03:53:27.267Z,3.70
2018-12-24T03:54:43.863Z,3.60
2018-12-24T03:56:00.523Z,3.60
2018-12-24T03:57:17.137Z,3.50
2018-12-24T03:58:33.699Z,3.50
2018-12-24T03:59:50.285Z,3.40
2018-12-24T04:01:06.866Z,3.40
2018-12-24T04:02:22.780Z,3.40
2018-12-24T04:03:39.370Z,3.40
2018-12-24T04:04:55.799Z,3.30
2018-12-24T04:06:12.411Z,3.40
2018-12-24T04:07:28.331Z,3.40
2018-12-24T04:08:44.746Z,3.40
2018-12-24T04:10:01.362Z,3.40
2018-12-24T04:11:18.084Z,3.40
2018-12-24T04:12:34.758Z,3.40
2018-12-24T04:13:50.612Z,3.30
2018-12-24T04:15:07.300Z,3.30
2018-12-24T04:16:23.857Z,3.30
2018-12-24T04:17:40.466Z,3.30
2018-12-24T04:18:56.658Z,3.30
2018-12-24T04:20:12.969Z,3.10
2018-12-24T04:21:29.291Z,3.20
2018-12-24T04:22:45.885Z,3.20
2018-12-24T04:24:02.384Z,3.20
2018-12-24T04:25:19.048Z,3.10
2018-12-24T04:26:34.942Z,3.10
2018-12-24T04:27:51.490Z,3.10
2018-12-24T04:29:06.024Z,3.10
2018-12-24T04:30:29.526Z,3.10
2018-12-24T04:31:53.046Z,3.10
2018-12-24T04:33:16.555Z,3.10
2018-12-24T04:34:40.078Z,3.10
2018-12-24T04:36:03.574Z,3.10
2018-12-24T04:37:27.089Z,3.10
2018-12-24T04:38:50.598Z,3.10
2018-12-24T04:40:14.102Z,3.10
2018-12-24T04:41:37.629Z,3.10
2018-12-24T04:43:01.405Z,3.10
2018-12-24T04:44:24.915Z,3.10
2018-12-24T04:45:48.416Z,3.10
2018-12-24T04:47:11.939Z,3.10
2018-12-24T04:50:12.806Z,3.20
2018-12-24T04:51:29.454Z,3.20
2018-12-24T04:52:46.021Z,3.10
2018-12-24T04:54:02.607Z,3.10
2018-12-24T04:55:18.855Z,3.10
2018-12-24T04:56:35.459Z,3.10
2018-12-24T04:57:52.046Z,3.10
2018-12-24T04:59:06.602Z,3.10
2018-12-24T05:00:30.102Z,3.10
2018-12-24T05:01:53.625Z,3.20
2018-12-24T05:03:17.147Z,3.20
2018-12-24T05:04:40.663Z,3.20
2018-12-24T05:06:04.182Z,3.20
2018-12-24T05:07:27.702Z,3.20
2018-12-24T05:08:51.217Z,3.20
2018-12-24T05:10:14.711Z,3.20
2018-12-24T05:11:38.215Z,3.20
2018-12-24T05:13:01.726Z,3.10
2018-12-24T05:14:25.228Z,3.10
2018-12-24T05:15:48.733Z,3.10
2018-12-24T05:17:12.251Z,3.10
2018-12-24T05:18:35.746Z,3.10
2018-12-24T05:19:59.246Z,3.10
2018-12-24T05:21:22.742Z,3.00
2018-12-24T05:22:46.266Z,3.00
2018-12-24T05:24:09.774Z,3.00
2018-12-24T05:25:33.287Z,3.00
2018-12-24T05:26:56.782Z,2.90
2018-12-24T05:28:20.298Z,2.90
2018-12-24T05:29:43.795Z,2.90
2018-12-24T05:31:07.306Z,2.90
2018-12-24T05:32:30.823Z,2.80
2018-12-24T05:33:54.313Z,2.80
2018-12-24T05:35:17.828Z,2.80
2018-12-24T05:36:41.342Z,2.80
2018-12-24T05:38:04.851Z,2.80
2018-12-24T05:39:28.358Z,2.80
2018-12-24T05:40:51.867Z,2.80
2018-12-24T05:42:15.374Z,2.80
2018-12-24T05:43:38.906Z,2.80
2018-12-24T05:45:02.394Z,2.80
2018-12-24T05:46:06.660Z,2.80
2018-12-24T05:47:30.173Z,2.80
2018-12-24T05:48:53.683Z,2.80
2018-12-24T05:50:17.195Z,2.80
2018-12-24T05:51:40.695Z,2.70
2018-12-24T05:53:04.217Z,2.80
2018-12-24T05:54:27.710Z,2.70
2018-12-24T05:55:51.224Z,2.70
2018-12-24T05:57:14.714Z,2.70
2018-12-24T05:58:38.237Z,2.70
2018-12-24T06:00:01.739Z,2.70
2018-12-24T06:01:25.248Z,2.70
2018-12-24T06:05:08.134Z,2.70
2018-12-24T06:06:31.638Z,2.70
2018-12-24T06:07:55.141Z,2.70
2018-12-24T06:09:18.651Z,2.60
2018-12-24T06:10:42.157Z,2.60
2018-12-24T06:12:05.678Z,2.60
2018-12-24T06:13:29.182Z,2.60
2018-12-24T06:14:53.083Z,2.50
2018-12-24T06:16:16.578Z,2.50
2018-12-24T06:17:40.077Z,2.50
2018-12-24T06:19:03.594Z,2.40
2018-12-24T06:20:27.102Z,2.50
2018-12-24T06:21:50.601Z,2.50
2018-12-24T06:23:14.095Z,2.40
2018-12-24T06:24:37.608Z,2.40
2018-12-24T06:26:01.114Z,2.40
2018-12-24T06:27:24.610Z,2.40
2018-12-24T06:28:48.106Z,2.40
2018-12-24T06:30:11.635Z,2.40
2018-12-24T06:31:35.822Z,2.40
2018-12-24T06:33:00.346Z,2.40
2018-12-24T06:34:23.956Z,2.40
2018-12-24T06:35:49.047Z,2.50
2018-12-24T06:37:12.539Z,2.50
2018-12-24T06:38:36.042Z,2.50
2018-12-24T06:39:59.554Z,2.50
2018-12-24T06:41:23.047Z,2.60
2018-12-24T06:42:46.545Z,2.60
2018-12-24T06:44:10.042Z,2.60
2018-12-24T06:45:33.566Z,2.60
2018-12-24T06:46:57.067Z,2.60
2018-12-24T06:48:20.565Z,2.70
2018-12-24T06:49:44.062Z,2.70
2018-12-24T06:51:00.077Z,2.70
2018-12-24T06:52:14.617Z,2.70
2018-12-24T06:53:38.119Z,2.80
2018-12-24T06:56:30.806Z,2.70
2018-12-24T06:57:54.310Z,2.80
2018-12-24T06:59:17.823Z,2.80
2018-12-24T07:00:41.335Z,2.80
2018-12-24T07:02:04.829Z,2.80
2018-12-24T07:03:28.322Z,2.80
2018-12-24T07:04:51.826Z,2.80
2018-12-24T07:06:15.342Z,2.80
2018-12-24T07:07:38.855Z,2.80
2018-12-24T07:09:02.351Z,2.80
2018-12-24T07:10:25.854Z,2.80
2018-12-24T07:11:49.349Z,2.80
2018-12-24T07:13:12.874Z,2.80
2018-12-24T07:14:36.369Z,2.80
2018-12-24T07:15:59.883Z,2.90
2018-12-24T07:17:23.402Z,2.90
2018-12-24T07:18:46.893Z,2.90
2018-12-24T07:20:10.410Z,2.90
2018-12-24T07:21:33.927Z,2.90
2018-12-24T07:22:57.417Z,2.90
2018-12-24T07:24:20.914Z,2.90
2018-12-24T07:25:44.418Z,2.90
2018-12-24T07:27:07.929Z,2.90
2018-12-24T07:28:31.428Z,2.90
2018-12-24T07:29:55.023Z,2.90
2018-12-24T07:31:20.158Z,2.90
2018-12-24T07:32:43.651Z,2.80
2018-12-24T07:34:07.155Z,2.90
2018-12-24T07:35:30.678Z,2.80
2018-12-24T07:36:54.195Z,2.70
2018-12-24T07:38:18.102Z,2.70
2018-12-24T07:39:41.578Z,2.70
2018-12-24T07:42:49.314Z,2.70
2018-12-24T07:44:12.821Z,2.70
2018-12-24T07:45:36.325Z,2.80
2018-12-24T07:46:59.843Z,2.70
2018-12-24T07:48:23.346Z,2.80
2018-12-24T07:49:46.852Z,2.80
2018-12-24T07:51:03.353Z,2.80
2018-12-24T07:52:19.978Z,2.90
2018-12-24T07:53:36.646Z,2.90
2018-12-24T07:54:52.434Z,2.90
2018-12-24T07:56:08.341Z,2.90
2018-12-24T07:57:24.702Z,3.00
2018-12-24T07:58:40.810Z,3.00
2018-12-24T07:59:57.055Z,3.20
2018-12-24T08:01:12.877Z,3.30
2018-12-24T08:02:28.870Z,3.50
2018-12-24T08:03:44.762Z,3.80
2018-12-24T08:05:00.563Z,4.00
2018-12-24T08:06:16.958Z,4.20
2018-12-24T08:07:33.270Z,4.40
2018-12-24T08:08:49.903Z,4.70
2018-12-24T08:10:05.759Z,5.10
2018-12-24T08:11:21.563Z,5.40
2018-12-24T08:12:38.115Z,5.60
2018-12-24T08:13:54.668Z,5.70
2018-12-24T08:15:09.270Z,5.80
2018-12-24T08:16:32.776Z,5.80
2018-12-24T08:17:56.278Z,5.60
2018-12-24T08:19:19.778Z,5.40
2018-12-24T08:20:43.279Z,5.10
2018-12-24T08:22:06.786Z,4.80
2018-12-24T08:23:30.280Z,4.60
2018-12-24T08:24:53.774Z,4.30
2018-12-24T08:26:17.262Z,4.10
2018-12-24T08:27:40.769Z,3.90
2018-12-24T08:29:04.282Z,4.00
2018-12-24T08:30:27.802Z,4.70
2018-12-24T08:31:51.301Z,5.50
2018-12-24T08:33:14.813Z,6.60
2018-12-24T08:34:38.387Z,7.70
2018-12-24T08:36:01.873Z,8.90
2018-12-24T08:37:25.361Z,9.90
2018-12-24T08:38:48.906Z,11.00
2018-12-24T08:40:12.422Z,11.90
2018-12-24T08:41:35.930Z,12.70
2018-12-24T08:42:59.438Z,13.30
2018-12-24T08:44:22.959Z,13.90
2018-12-24T08:45:46.465Z,14.50
2018-12-24T08:47:10.026Z,15.00
2018-12-24T08:48:33.523Z,15.50
2018-12-24T08:49:57.054Z,15.60
2018-12-24T08:51:20.816Z,16.00
2018-12-24T08:52:44.334Z,16.40
2018-12-24T08:55:37.043Z,17.30
2018-12-24T08:57:00.550Z,17.90
2018-12-24T08:58:24.055Z,18.30
2018-12-24T08:59:47.579Z,18.60
2018-12-24T09:01:11.078Z,19.00
2018-12-24T09:02:34.573Z,19.30
2018-12-24T09:03:58.065Z,19.60
2018-12-24T09:05:21.578Z,19.80
2018-12-24T09:06:45.082Z,20.00
2018-12-24T09:08:08.590Z,20.20
2018-12-24T09:09:32.157Z,20.30
2018-12-24T09:10:55.666Z,20.50
2018-12-24T09:12:19.171Z,20.70
2018-12-24T09:13:42.662Z,20.40
2018-12-24T09:15:06.717Z,20.60
2018-12-24T09:16:30.213Z,20.70
2018-12-24T09:17:53.706Z,20.90
2018-12-24T09:19:17.250Z,21.00
2018-12-24T09:20:40.766Z,20.50
2018-12-24T09:22:04.346Z,20.60
2018-12-24T09:23:27.857Z,20.90
2018-12-24T09:24:51.362Z,21.10
2018-12-24T09:26:14.865Z,21.40
2018-12-24T09:29:20.955Z,21.90
2018-12-24T09:30:47.511Z,22.10
2018-12-24T09:32:11.012Z,22.30
2018-12-24T09:33:34.506Z,22.40
2018-12-24T09:34:58.006Z,22.60
2018-12-24T09:36:21.515Z,22.70
2018-12-24T09:37:45.027Z,22.80
2018-12-24T09:39:08.524Z,22.80
2018-12-24T09:40:32.018Z,22.80
2018-12-24T09:41:55.557Z,22.80
2018-12-24T09:43:19.049Z,22.90
2018-12-24T09:44:42.550Z,23.00
2018-12-24T09:46:06.050Z,22.90
2018-12-24T09:47:29.555Z,22.90
2018-12-24T09:48:53.053Z,22.90
2018-12-24T09:50:16.546Z,22.90
2018-12-24T09:51:32.575Z,23.00
2018-12-24T09:52:47.154Z,23.00
2018-12-24T09:54:10.647Z,23.10
2018-12-24T09:55:34.141Z,23.20
2018-12-24T09:56:57.654Z,23.20
2018-12-24T09:58:21.151Z,23.20
2018-12-24T09:59:44.646Z,23.20
2018-12-24T10:01:08.146Z,23.20
2018-12-24T10:02:34.407Z,23.20
2018-12-24T10:04:03.014Z,23.20
2018-12-24T10:05:25.450Z,23.20
2018-12-24T10:06:48.962Z,23.20
2018-12-24T10:08:14.458Z,23.20
2018-12-24T10:09:37.946Z,23.30
2018-12-24T10:11:01.454Z,23.20
2018-12-24T10:12:24.962Z,23.10
2018-12-24T10:13:48.449Z,23.10
2018-12-24T10:15:11.956Z,23.10
2018-12-24T10:16:35.486Z,23.00
2018-12-24T10:17:58.984Z,22.90
2018-12-24T10:19:22.498Z,22.80
2018-12-24T10:20:45.998Z,22.70
2018-12-24T10:22:09.510Z,22.60
2018-12-24T10:23:33.002Z,22.50
2018-12-24T10:24:56.493Z,22.40
2018-12-24T10:26:20.007Z,22.20
2018-12-24T10:27:43.534Z,22.10
2018-12-24T10:29:07.030Z,21.90
2018-12-24T10:30:30.526Z,21.60
2018-12-24T10:31:54.111Z,21.50
2018-12-24T10:33:17.626Z,21.30
2018-12-24T10:34:41.138Z,21.20
2018-12-24T10:36:04.626Z,21.00
2018-12-24T10:37:28.138Z,20.90
2018-12-24T10:38:51.632Z,20.80
2018-12-24T10:40:16.406Z,20.60
2018-12-24T10:41:39.906Z,20.50
2018-12-24T10:43:03.415Z,20.30
2018-12-24T10:44:26.911Z,20.20
2018-12-24T10:45:50.409Z,20.00
2018-12-24T10:47:13.902Z,19.80
2018-12-24T10:48:37.654Z,19.70
2018-12-24T10:50:01.167Z,19.50
2018-12-24T10:51:17.629Z,19.30
2018-12-24T10:52:33.498Z,19.10
2018-12-24T10:53:49.658Z,19.00
2018-12-24T10:55:05.646Z,18.80
2018-12-24T10:56:22.442Z,18.60
2018-12-24T10:57:38.645Z,18.40
2018-12-24T10:58:55.302Z,18.20
2018-12-24T11:00:10.629Z,18.00
2018-12-24T11:01:34.117Z,18.00
2018-12-24T11:02:57.618Z,18.00
2018-12-24T11:04:21.117Z,17.90
2018-12-24T11:05:44.614Z,17.30
2018-12-24T11:07:08.127Z,16.50
2018-12-24T11:08:31.630Z,15.70
2018-12-24T11:09:55.130Z,15.00
2018-12-24T11:11:18.631Z,14.30
2018-12-24T11:12:42.125Z,13.70
2018-12-24T11:14:05.645Z,13.10
2018-12-24T11:15:29.346Z,12.60
2018-12-24T11:16:52.895Z,12.10
2018-12-24T11:18:16.436Z,11.60
2018-12-24T11:19:39.953Z,11.30
2018-12-24T11:21:03.450Z,10.90
2018-12-24T11:22:26.942Z,10.60
2018-12-24T11:23:50.457Z,10.30
2018-12-24T11:25:13.959Z,10.00
2018-12-24T11:26:37.456Z,9.80
2018-12-24T11:28:02.666Z,9.60
2018-12-24T11:29:26.167Z,9.30
2018-12-24T11:30:49.674Z,9.10
2018-12-24T11:32:13.166Z,9.00
2018-12-24T11:35:20.903Z,8.70
2018-12-24T11:36:44.391Z,8.60
2018-12-24T11:38:07.891Z,8.50
2018-12-24T11:39:31.418Z,8.50
2018-12-24T11:40:54.915Z,8.40
2018-12-24T11:42:18.415Z,8.40
2018-12-24T11:43:41.957Z,8.40
2018-12-24T11:45:05.898Z,8.30
2018-12-24T11:46:29.382Z,8.30
2018-12-24T11:47:52.882Z,8.20
2018-12-24T11:50:51.449Z,8.10
2018-12-24T11:52:08.138Z,8.00
2018-12-24T11:53:24.787Z,8.00
2018-12-24T11:54:41.369Z,7.90
2018-12-24T11:55:57.506Z,7.90
2018-12-24T11:57:14.094Z,7.70
2018-12-24T11:58:30.301Z,7.70
2018-12-24T11:59:46.345Z,7.70
2018-12-24T12:01:02.471Z,7.50
2018-12-24T12:02:19.325Z,7.50
2018-12-24T12:03:35.570Z,7.40
2018-12-24T12:04:51.808Z,7.40
2018-12-24T12:06:07.631Z,7.30
2018-12-24T12:07:24.167Z,7.30
2018-12-24T12:08:40.943Z,7.30
2018-12-24T12:09:56.950Z,7.30
2018-12-24T12:11:11.521Z,7.20
2018-12-24T12:12:35.021Z,7.20
2018-12-24T12:13:58.731Z,7.20
2018-12-24T12:15:23.939Z,7.00
2018-12-24T12:16:47.431Z,7.00
2018-12-24T12:18:10.929Z,6.90
2018-12-24T12:19:34.423Z,6.80
2018-12-24T12:20:57.921Z,6.80
2018-12-24T12:22:21.628Z,6.80
2018-12-24T12:23:46.630Z,6.80
2018-12-24T12:25:10.110Z,6.70
2018-12-24T12:26:33.622Z,6.70
2018-12-24T12:27:57.110Z,6.60
2018-12-24T12:29:20.603Z,6.50
2018-12-24T12:30:44.102Z,6.50
2018-12-24T12:32:07.613Z,6.50
2018-12-24T12:33:31.114Z,6.50
2018-12-24T12:34:54.610Z,6.50
2018-12-24T12:36:18.119Z,6.50
2018-12-24T12:37:41.622Z,6.60
2018-12-24T12:39:06.713Z,6.70
2018-12-24T12:40:30.210Z,6.70
2018-12-24T12:41:53.718Z,6.70
2018-12-24T12:43:17.207Z,6.60
2018-12-24T12:44:40.706Z,6.60
2018-12-24T12:46:04.202Z,6.50
2018-12-24T12:47:27.711Z,6.40
2018-12-24T12:48:51.218Z,6.20
2018-12-24T12:50:14.716Z,6.10
2018-12-24T12:51:31.375Z,6.00
2018-12-24T12:52:48.114Z,6.00
2018-12-24T12:54:04.777Z,6.00
2018-12-24T12:55:20.567Z,6.00
2018-12-24T12:56:37.170Z,6.10
2018-12-24T12:57:53.795Z,6.20
2018-12-24T12:59:08.306Z,6.30
2018-12-24T13:00:31.811Z,6.40
2018-12-24T13:01:55.301Z,6.40
2018-12-24T13:03:18.815Z,6.40
2018-12-24T13:06:24.894Z,6.20
2018-12-24T13:07:48.407Z,6.20
2018-12-24T13:09:12.007Z,6.20
2018-12-24T13:10:37.101Z,6.10
2018-12-24T13:12:00.594Z,6.20
2018-12-24T13:13:24.118Z,6.20
2018-12-24T13:15:06.708Z,6.30
2018-12-24T13:16:30.206Z,6.30
2018-12-24T13:17:53.727Z,6.30
2018-12-24T13:19:17.230Z,6.30
2018-12-24T13:20:40.747Z,6.30
2018-12-24T13:22:04.664Z,6.20
2018-12-24T13:23:29.457Z,6.20
2018-12-24T13:24:52.957Z,6.20
2018-12-24T13:26:16.462Z,6.20
2018-12-24T13:27:39.984Z,6.10
2018-12-24T13:29:03.485Z,6.10
2018-12-24T13:30:26.973Z,6.00
2018-12-24T13:31:50.475Z,6.00
2018-12-24T13:33:13.982Z,5.90
2018-12-24T13:34:37.478Z,5.80
2018-12-24T13:36:00.973Z,5.80
2018-12-24T13:37:24.477Z,5.80
2018-12-24T13:38:47.995Z,5.70
2018-12-24T13:40:11.486Z,5.60
2018-12-24T13:42:59.279Z,5.50
2018-12-24T13:44:22.787Z,5.50
2018-12-24T13:45:46.274Z,5.40
2018-12-24T13:47:09.766Z,5.40
2018-12-24T13:48:33.274Z,5.40
2018-12-24T13:49:56.766Z,5.40
2018-12-24T13:51:12.667Z,5.30
2018-12-24T13:52:28.629Z,5.30
2018-12-24T13:53:44.614Z,5.30
2018-12-24T13:55:00.474Z,5.20
2018-12-24T13:56:17.024Z,5.10
2018-12-24T13:57:32.925Z,5.10
2018-12-24T13:58:48.919Z,5.10
2018-12-24T14:00:04.827Z,5.00
2018-12-24T14:03:14.782Z,4.90
2018-12-24T14:04:31.323Z,4.90
2018-12-24T14:05:47.911Z,4.80
2018-12-24T14:07:02.497Z,4.80
2018-12-24T14:08:25.994Z,4.80
2018-12-24T14:09:49.502Z,4.70
2018-12-24T14:11:13.009Z,4.60
2018-12-24T14:12:36.514Z,4.60
2018-12-24T14:14:00.018Z,4.50
2018-12-24T14:15:23.518Z,4.50
2018-12-24T14:19:06.314Z,4.50
2018-12-24T14:20:29.819Z,4.50
2018-12-24T14:21:53.397Z,4.50
2018-12-24T14:23:18.514Z,4.50
2018-12-24T14:24:42.031Z,4.50
2018-12-24T14:26:05.529Z,4.50
2018-12-24T14:27:29.025Z,4.50
2018-12-24T14:28:52.527Z,4.40
2018-12-24T14:30:16.055Z,4.40
2018-12-24T14:31:39.554Z,4.40
2018-12-24T14:33:03.310Z,4.40
2018-12-24T14:35:51.129Z,4.40
2018-12-24T14:37:14.634Z,4.40
2018-12-24T14:38:38.134Z,4.40
2018-12-24T14:40:01.646Z,4.40
2018-12-24T14:41:25.147Z,4.40
2018-12-24T14:42:48.637Z,4.40
2018-12-24T14:45:36.456Z,4.30
2018-12-24T14:46:59.945Z,4.40
2018-12-24T14:48:23.462Z,4.30
2018-12-24T14:49:46.970Z,4.30
2018-12-24T14:51:10.478Z,4.30
2018-12-24T14:52:33.990Z,4.30
2018-12-24T14:53:57.489Z,4.30
2018-12-24T14:55:21.013Z,4.30
2018-12-24T14:56:44.514Z,4.30
2018-12-24T14:58:08.019Z,4.30
2018-12-24T14:59:31.527Z,4.30
2018-12-24T15:00:55.036Z,4.20
2018-12-24T15:02:18.532Z,4.20
2018-12-24T15:06:01.555Z,4.10
2018-12-24T15:07:25.054Z,3.90
2018-12-24T15:08:48.550Z,3.90
2018-12-24T15:10:12.059Z,3.80
2018-12-24T15:11:35.582Z,3.80
2018-12-24T15:12:59.094Z,3.80
2018-12-24T15:14:22.602Z,3.80
2018-12-24T15:15:46.118Z,3.70
2018-12-24T15:17:09.676Z,3.80
2018-12-24T15:18:33.206Z,3.80
2018-12-24T15:19:56.705Z,3.80
2018-12-24T15:21:20.210Z,3.80
2018-12-24T15:22:43.701Z,3.80
2018-12-24T15:24:07.206Z,3.80
2018-12-24T15:25:30.703Z,3.80
2018-12-24T15:26:54.290Z,3.80
2018-12-24T15:28:17.798Z,3.70
2018-12-24T15:29:41.296Z,3.70
2018-12-24T15:31:04.854Z,3.60
2018-12-24T15:32:28.346Z,3.50
2018-12-24T15:33:51.842Z,3.50
2018-12-24T15:35:15.342Z,3.40
2018-12-24T15:36:38.873Z,3.40
2018-12-24T15:38:02.386Z,3.30
2018-12-24T15:39:25.886Z,3.30
2018-12-24T15:40:49.397Z,3.30
2018-12-24T15:42:12.922Z,3.30
2018-12-24T15:43:36.411Z,3.40
2018-12-24T15:44:59.922Z,3.40
2018-12-24T15:46:23.433Z,3.40
2018-12-24T15:47:46.947Z,3.50
2018-12-24T15:49:10.458Z,3.50
2018-12-24T15:50:33.951Z,3.60
2018-12-24T15:51:50.357Z,3.60
2018-12-24T15:53:07.030Z,3.60
2018-12-24T15:54:23.566Z,3.60
2018-12-24T15:55:40.275Z,3.50
2018-12-24T15:56:56.553Z,3.50
2018-12-24T15:58:13.225Z,3.40
2018-12-24T15:59:29.819Z,3.40
2018-12-24T16:00:46.398Z,3.30
2018-12-24T16:02:02.990Z,3.20
2018-12-24T16:03:19.535Z,3.20
2018-12-24T16:06:30.459Z,3.10
2018-12-24T16:07:47.100Z,3.00
2018-12-24T16:09:01.685Z,2.90
2018-12-24T16:10:25.186Z,2.90
2018-12-24T16:11:48.702Z,2.90
2018-12-24T16:13:12.251Z,2.80
2018-12-24T16:14:35.787Z,2.80
2018-12-24T16:15:59.286Z,2.80
2018-12-24T16:17:22.802Z,2.70
2018-12-24T16:18:46.320Z,2.70
2018-12-24T16:20:09.856Z,2.60
2018-12-24T16:21:33.406Z,2.60
2018-12-24T16:22:56.934Z,2.60
2018-12-24T16:24:20.442Z,2.60
2018-12-24T16:25:43.961Z,2.60
2018-12-24T16:27:07.470Z,2.50
2018-12-24T16:28:31.052Z,2.50
2018-12-24T16:29:54.555Z,2.50
2018-12-24T16:31:18.053Z,2.50
2018-12-24T16:32:41.591Z,2.40
2018-12-24T16:34:05.098Z,2.40
2018-12-24T16:35:28.614Z,2.40
2018-12-24T16:36:52.198Z,2.40
2018-12-24T16:38:15.715Z,2.40
2018-12-24T16:39:39.251Z,2.40
2018-12-24T16:41:02.797Z,2.40
2018-12-24T16:42:26.333Z,2.40
2018-12-24T16:43:49.845Z,2.40
2018-12-24T16:45:13.358Z,2.40
2018-12-24T16:46:36.867Z,2.40
2018-12-24T16:48:00.390Z,2.40
2018-12-24T16:49:23.905Z,2.40
2018-12-24T16:50:47.405Z,2.40
2018-12-24T16:52:03.328Z,2.40
2018-12-24T16:53:19.313Z,2.40
2018-12-24T16:54:35.814Z,2.40
2018-12-24T16:55:52.373Z,2.40
2018-12-24T16:57:06.981Z,2.40
2018-12-24T16:58:30.491Z,2.40
2018-12-24T16:59:53.998Z,2.40
2018-12-24T17:01:17.499Z,2.40
2018-12-24T17:02:41.030Z,2.40
2018-12-24T17:04:04.570Z,2.30
2018-12-24T17:05:28.070Z,2.30
2018-12-24T17:06:51.610Z,2.30
2018-12-24T17:08:15.120Z,2.30
2018-12-24T17:09:38.630Z,2.30
2018-12-24T17:11:02.143Z,2.30
2018-12-24T17:12:25.645Z,2.30
2018-12-24T17:13:49.178Z,2.30
2018-12-24T17:15:12.760Z,2.30
2018-12-24T17:16:36.261Z,2.30
2018-12-24T17:17:59.774Z,2.20
2018-12-24T17:19:23.349Z,2.20
2018-12-24T17:20:46.862Z,2.20
2018-12-24T17:22:10.374Z,2.20
2018-12-24T17:23:33.890Z,2.10
2018-12-24T17:24:57.418Z,2.10
2018-12-24T17:26:20.936Z,2.20
2018-12-24T17:27:44.451Z,2.20
2018-12-24T17:29:07.970Z,2.10
2018-12-24T17:30:31.477Z,2.20
2018-12-24T17:31:54.979Z,2.20
2018-12-24T17:33:18.487Z,2.20
2018-12-24T17:34:42.296Z,2.20
2018-12-24T17:36:05.813Z,2.20
2018-12-24T17:37:29.321Z,2.20
2018-12-24T17:38:52.826Z,2.10
2018-12-24T17:40:16.346Z,2.20
2018-12-24T17:41:39.862Z,2.20
2018-12-24T17:43:03.382Z,2.20
2018-12-24T17:44:26.897Z,2.20
2018-12-24T17:45:50.439Z,2.20
2018-12-24T17:47:16.402Z,2.20
2018-12-24T17:48:39.186Z,2.20
2018-12-24T17:50:02.694Z,2.20
2018-12-24T17:51:26.226Z,2.20
2018-12-24T17:52:49.739Z,2.20
2018-12-24T17:54:13.476Z,2.20
2018-12-24T17:55:37.000Z,2.30
2018-12-24T17:57:00.497Z,2.30
2018-12-24T17:58:24.007Z,2.30
2018-12-24T17:59:47.515Z,2.30
2018-12-24T18:01:11.030Z,2.30
2018-12-24T18:02:34.542Z,2.30
2018-12-24T18:03:58.051Z,2.30
2018-12-24T18:05:21.558Z,2.30
2018-12-24T18:06:45.075Z,2.30
2018-12-24T18:08:08.595Z,2.30
2018-12-24T18:09:32.106Z,2.30
2018-12-24T18:10:55.630Z,2.30
2018-12-24T18:12:19.134Z,2.30
2018-12-24T18:13:42.647Z,2.30
2018-12-24T18:15:06.229Z,2.30
2018-12-24T18:16:29.750Z,2.30
2018-12-24T18:17:53.270Z,2.30
2018-12-24T18:19:16.830Z,2.30
2018-12-24T18:20:40.527Z,2.40
2018-12-24T18:22:04.143Z,2.40
2018-12-24T18:23:27.718Z,2.40
2018-12-24T18:24:51.231Z,2.40
2018-12-24T18:26:14.762Z,2.50
2018-12-24T18:27:38.273Z,2.50
2018-12-24T18:29:01.791Z,2.50
2018-12-24T18:30:25.309Z,2.50
2018-12-24T18:31:48.830Z,2.50
2018-12-24T18:33:12.378Z,2.50
2018-12-24T18:34:35.881Z,2.50
2018-12-24T18:35:59.390Z,2.50
2018-12-24T18:37:22.910Z,2.50
2018-12-24T18:38:46.419Z,2.60